createdAt,value
2022-11-05T00:03:04.846Z,99607.00
2022-11-05T00:08:27.001Z,99614.40
2022-11-05T00:13:49.364Z,99607.80
2022-11-05T00:19:08.248Z,99604.00
2022-11-05T00:24:30.918Z,99590.40
2022-11-05T00:29:34.821Z,99591.00
2022-11-05T00:34:38.137Z,99575.20
2022-11-05T00:39:41.659Z,99572.60
2022-11-05T00:45:03.519Z,99569.20
2022-11-05T00:50:07.882Z,99560.40
2022-11-05T00:55:11.351Z,99562.60
2022-11-05T01:00:15.960Z,99555.80
2022-11-05T01:05:20.102Z,99545.80
2022-11-05T01:10:23.951Z,99539.00
2022-11-05T01:15:27.466Z,99535.80
2022-11-05T01:20:31.648Z,99535.20
2022-11-05T01:25:35.211Z,99530.40
2022-11-05T01:30:39.649Z,99523.00
2022-11-05T01:35:42.971Z,99529.20
2022-11-05T01:40:46.813Z,99520.80
2022-11-05T01:45:55.120Z,99513.00
2022-11-05T01:51:12.971Z,99516.00
2022-11-05T01:56:42.697Z,99509.40
2022-11-05T02:01:46.798Z,99505.00
2022-11-05T02:06:50.760Z,99495.40
2022-11-05T02:11:54.271Z,99500.60
2022-11-05T02:17:05.161Z,99514.00
2022-11-05T02:22:27.177Z,99517.60
2022-11-05T02:27:47.742Z,99504.20
2022-11-05T02:33:10.282Z,99516.80
2022-11-05T02:38:36.615Z,99509.00
2022-11-05T02:44:06.214Z,99512.80
2022-11-05T02:49:36.621Z,99514.00
2022-11-05T02:54:50.069Z,99509.00
2022-11-05T03:00:54.416Z,99503.80
2022-11-05T03:06:27.728Z,99508.80
2022-11-05T03:11:40.870Z,99524.40
2022-11-05T03:16:57.593Z,99523.60
2022-11-05T03:22:07.047Z,99535.40
2022-11-05T03:27:16.707Z,99530.60
2022-11-05T03:32:22.721Z,99522.00
2022-11-05T03:37:32.137Z,99527.60
2022-11-05T03:42:40.053Z,99517.80
2022-11-05T03:47:47.888Z,99503.20
2022-11-05T03:53:04.860Z,99503.60
2022-11-05T03:58:09.639Z,99508.00
2022-11-05T04:03:13.262Z,99519.20
2022-11-05T04:08:35.629Z,99512.40
2022-11-05T04:13:39.134Z,99519.00
2022-11-05T04:18:43.906Z,99512.40
2022-11-05T04:24:05.979Z,99502.00
2022-11-05T04:29:28.913Z,99490.40
2022-11-05T04:34:32.431Z,99505.00
2022-11-05T04:39:35.943Z,99501.00
2022-11-05T04:44:39.563Z,99509.60
2022-11-05T04:49:43.082Z,99499.80
2022-11-05T04:54:46.600Z,99517.00
2022-11-05T04:59:52.258Z,99532.00
2022-11-05T05:04:55.773Z,99530.80
2022-11-05T05:09:59.191Z,99530.60
2022-11-05T05:15:03.935Z,99529.80
2022-11-05T05:20:27.214Z,99545.60
2022-11-05T05:25:31.755Z,99558.40
2022-11-05T05:30:35.171Z,99574.60
2022-11-05T05:35:38.685Z,99586.20
2022-11-05T05:40:42.094Z,99581.60
2022-11-05T05:45:45.437Z,99575.80
2022-11-05T05:50:48.930Z,99578.00
2022-11-05T05:55:55.297Z,99577.00
2022-11-05T06:01:12.934Z,99584.80
2022-11-05T06:06:20.273Z,99606.60
2022-11-05T06:11:25.241Z,99614.40
2022-11-05T06:16:28.945Z,99620.20
2022-11-05T06:21:33.182Z,99623.40
2022-11-05T06:26:42.947Z,99633.20
2022-11-05T06:31:46.655Z,99622.60
2022-11-05T06:36:50.170Z,99621.60
2022-11-05T06:47:17.174Z,99643.80
2022-11-05T06:52:21.426Z,99649.40
2022-11-05T06:57:24.902Z,99653.60
2022-11-05T07:02:28.582Z,99653.60
2022-11-05T07:07:31.980Z,99673.20
2022-11-05T07:12:35.685Z,99662.00
2022-11-05T07:17:40.488Z,99676.40
2022-11-05T07:22:43.932Z,99681.00
2022-11-05T07:27:47.380Z,99685.40
2022-11-05T07:32:50.864Z,99695.20
2022-11-05T07:37:55.998Z,99696.20
2022-11-05T07:43:01.995Z,99695.20
2022-11-05T07:48:06.340Z,99711.20
2022-11-05T07:53:15.335Z,99715.00
2022-11-05T07:58:19.485Z,99720.40
2022-11-05T08:03:23.439Z,99730.80
2022-11-05T08:08:27.011Z,99740.00
2022-11-05T08:13:30.663Z,99737.80
2022-11-05T08:18:34.391Z,99747.60
2022-11-05T08:23:39.252Z,99751.80
2022-11-05T08:28:42.657Z,99759.40
2022-11-05T08:33:46.164Z,99763.20
2022-11-05T08:38:49.699Z,99770.40
2022-11-05T08:43:56.581Z,99773.40
2022-11-05T08:48:59.997Z,99779.40
2022-11-05T08:54:05.198Z,99783.20
2022-11-05T08:59:08.900Z,99799.80
2022-11-05T09:04:12.592Z,99792.40
2022-11-05T09:09:15.963Z,99795.80
2022-11-05T09:14:19.518Z,99802.60
2022-11-05T09:19:22.930Z,99811.40
2022-11-05T09:24:26.416Z,99810.40
2022-11-05T09:29:29.861Z,99818.40
2022-11-05T09:34:34.086Z,99823.60
2022-11-05T09:39:37.504Z,99832.00
2022-11-05T09:44:51.372Z,99843.40
2022-11-05T09:49:58.571Z,99840.40
2022-11-05T09:55:07.947Z,99844.40
2022-11-05T10:00:17.169Z,99855.20
2022-11-05T10:05:23.641Z,99860.40
2022-11-05T10:10:43.761Z,99864.20
2022-11-05T10:16:45.547Z,99881.20
2022-11-05T10:22:06.117Z,99882.60
2022-11-05T10:27:28.832Z,99878.20
2022-11-05T10:32:41.272Z,99887.00
2022-11-05T10:37:48.772Z,99898.40
2022-11-05T10:43:15.135Z,99910.20
2022-11-05T10:48:45.159Z,99914.00
2022-11-05T10:54:06.680Z,99927.60
2022-11-05T10:59:27.823Z,99929.80
2022-11-05T11:04:37.529Z,99944.80
2022-11-05T11:09:49.987Z,99952.00
2022-11-05T11:15:27.641Z,99956.00
2022-11-05T11:20:32.958Z,99959.40
2022-11-05T11:26:10.395Z,99965.20
2022-11-05T11:31:23.109Z,99964.60
2022-11-05T11:36:38.240Z,99984.00
2022-11-05T11:41:45.183Z,99996.40
2022-11-05T11:46:52.764Z,99995.80
2022-11-05T11:52:05.053Z,99989.00
2022-11-05T11:57:26.395Z,99989.60
2022-11-05T12:03:11.014Z,99980.80
2022-11-05T12:09:12.852Z,99999.20
2022-11-05T12:14:46.102Z,100011.80
2022-11-05T12:20:17.147Z,100000.20
2022-11-05T12:25:28.028Z,99996.20
2022-11-05T12:31:22.639Z,100004.80
2022-11-05T12:36:41.485Z,100003.00
2022-11-05T12:42:14.992Z,100015.20
2022-11-05T12:47:49.455Z,100020.60
2022-11-05T12:53:11.137Z,100030.00
2022-11-05T12:58:35.128Z,100031.20
2022-11-05T13:03:50.504Z,100042.20
2022-11-05T13:09:16.846Z,100048.60
2022-11-05T13:14:37.054Z,100053.80
2022-11-05T13:20:08.916Z,100053.00
2022-11-05T13:25:28.119Z,100054.40
2022-11-05T13:30:41.841Z,100070.40
2022-11-05T13:36:23.894Z,100085.60
2022-11-05T13:42:13.286Z,100082.80
2022-11-05T13:47:57.630Z,100100.40
2022-11-05T13:53:50.218Z,100110.80
2022-11-05T13:59:19.962Z,100121.20
2022-11-05T14:04:31.945Z,100129.00
2022-11-05T14:09:38.538Z,100130.00
2022-11-05T14:14:54.489Z,100142.00
2022-11-05T14:20:06.921Z,100150.60
2022-11-05T14:25:19.526Z,100153.20
2022-11-05T14:30:47.014Z,100161.60
2022-11-05T14:35:51.790Z,100161.20
2022-11-05T14:41:03.474Z,100178.80
2022-11-05T14:46:07.756Z,100177.00
2022-11-05T14:51:37.378Z,100183.00
2022-11-05T14:56:53.307Z,100186.00
2022-11-05T15:02:13.692Z,100178.00
2022-11-05T15:07:35.484Z,100177.60
2022-11-05T15:12:49.147Z,100182.60
2022-11-05T15:18:06.823Z,100186.60
2022-11-05T15:23:17.477Z,100178.40
2022-11-05T15:28:43.716Z,100186.40
2022-11-05T15:33:48.666Z,100193.60
2022-11-05T15:39:15.534Z,100197.80
2022-11-05T15:44:35.191Z,100203.40
2022-11-05T15:49:39.070Z,100199.40
2022-11-05T15:54:43.696Z,100210.80
2022-11-05T15:59:48.333Z,100203.20
2022-11-05T16:04:52.568Z,100212.40
2022-11-05T16:10:02.153Z,100214.40
2022-11-05T16:15:08.715Z,100227.60
2022-11-05T16:20:22.624Z,100229.40
2022-11-05T16:25:44.375Z,100257.80
2022-11-05T16:31:05.976Z,100262.20
2022-11-05T16:36:09.882Z,100274.40
2022-11-05T16:41:16.733Z,100284.60
2022-11-05T16:46:21.528Z,100282.00
2022-11-05T16:51:28.531Z,100276.40
2022-11-05T16:56:32.865Z,100286.80
2022-11-05T17:01:41.102Z,100297.00
2022-11-05T17:06:46.955Z,100305.40
2022-11-05T17:11:50.389Z,100314.20
2022-11-05T17:16:54.113Z,100323.20
2022-11-05T17:21:57.690Z,100313.40
2022-11-05T17:27:01.140Z,100317.40
2022-11-05T17:32:06.783Z,100324.40
2022-11-05T17:45:19.591Z,100354.80
2022-11-05T17:50:23.129Z,100359.00
2022-11-05T17:55:26.770Z,100358.40
2022-11-05T18:00:30.642Z,100369.40
2022-11-05T18:05:35.280Z,100373.80
2022-11-05T18:10:40.877Z,100383.40
2022-11-05T18:15:44.976Z,100389.40
2022-11-05T18:20:48.389Z,100388.20
2022-11-05T18:25:52.008Z,100379.00
2022-11-05T18:30:55.484Z,100389.20
2022-11-05T18:35:59.245Z,100399.80
2022-11-05T18:41:07.125Z,100407.20
2022-11-05T18:46:29.355Z,100404.40
2022-11-05T18:51:34.977Z,100415.60
2022-11-05T18:56:44.950Z,100416.20
2022-11-05T19:01:48.975Z,100410.20
2022-11-05T19:06:53.013Z,100414.40
2022-11-05T19:11:57.422Z,100422.00
2022-11-05T19:17:02.185Z,100424.20
2022-11-05T19:22:05.723Z,100426.40
2022-11-05T19:27:09.235Z,100429.00
2022-11-05T19:32:12.637Z,100429.00
2022-11-05T19:37:16.410Z,100433.60
2022-11-05T19:42:19.986Z,100434.80
2022-11-05T19:47:23.409Z,100442.20
2022-11-05T19:52:26.814Z,100439.40
2022-11-05T19:57:30.325Z,100440.00
2022-11-05T20:02:34.222Z,100438.60
2022-11-05T20:07:38.189Z,100445.60
2022-11-05T20:12:41.588Z,100453.20
2022-11-05T20:17:50.559Z,100453.80
2022-11-05T20:22:54.058Z,100454.00
2022-11-05T20:27:57.931Z,100458.00
2022-11-05T20:33:01.489Z,100458.00
2022-11-05T20:38:05.763Z,100458.40
2022-11-05T20:43:09.244Z,100460.40
2022-11-05T20:48:14.021Z,100461.80
2022-11-05T20:53:17.950Z,100464.20
2022-11-05T20:58:21.630Z,100465.00
2022-11-05T21:03:25.247Z,100466.60
2022-11-05T21:08:29.569Z,100473.20
2022-11-05T21:13:33.869Z,100477.40
2022-11-05T21:18:40.615Z,100482.80
2022-11-05T21:23:44.130Z,100485.00
2022-11-05T21:28:47.951Z,100486.80
2022-11-05T21:33:55.148Z,100484.20
2022-11-05T21:38:59.401Z,100490.20
2022-11-05T21:44:04.542Z,100487.00
2022-11-05T21:49:08.185Z,100483.80
2022-11-05T21:54:41.098Z,100491.20
2022-11-05T21:59:55.414Z,100498.20
2022-11-05T22:05:00.408Z,100495.00
2022-11-05T22:10:16.034Z,100494.80
2022-11-05T22:15:20.018Z,100486.40
2022-11-05T22:20:23.864Z,100486.40
2022-11-05T22:25:27.351Z,100492.20
2022-11-05T22:30:35.639Z,100497.00
2022-11-05T22:35:40.122Z,100498.20
2022-11-05T22:40:43.557Z,100509.00
2022-11-05T22:45:46.996Z,100499.20
2022-11-05T22:50:50.773Z,100502.20
2022-11-05T22:55:54.196Z,100512.00
2022-11-05T23:00:58.800Z,100509.20
2022-11-05T23:06:05.417Z,100516.60
2022-11-05T23:11:38.802Z,100513.40
2022-11-05T23:17:02.848Z,100519.60
2022-11-05T23:22:34.827Z,100514.60
2022-11-05T23:27:41.096Z,100511.40
2022-11-05T23:32:44.749Z,100519.60
2022-11-05T23:38:06.930Z,100520.80
2022-11-05T23:43:29.842Z,100517.80
2022-11-05T23:48:36.831Z,100523.80
2022-11-05T23:53:41.752Z,100514.00
2022-11-05T23:58:45.714Z,100515.80
